EYPA/PLQ METAR and TAF weather

Enter ICAO airport designator
Station Type Date Time Source
EYPA METAR 2022/12/08 12:50 UTC NOAA

EYPA 081250Z VRB03KT 9999 FEW014 02/M01 Q1005


Station Type Date Time Source
EYPA Decoded METAR 2022/12/08 12:50 UTC NOAA

Palanga Intl., Lithuania (EYPA) 55-55-12N 021-03E
Dec 08, 2022 - 07:50 AM EST / 2022.12.08 1250 UTC
Wind: Variable at 3 MPH (3 KT):0
Visibility: greater than 7 mile(s):0
Sky conditions: mostly clear
Temperature: 35 F (2 C)
Dew Point: 30 F (-1 C)
Relative Humidity: 80%
Pressure (altimeter): 29.68 in. Hg (1005 hPa)
ob: EYPA 081250Z VRB03KT 9999 FEW014 02/M01 Q1005
cycle: 13

Station Type Date Time Source
EYPA TAF 2022/12/08 12:03 UTC NOAA

TAF TAF EYPA 081101Z 0812/0912 VRB05KT 8000 SCT010 BKN015
TEMPO 0812/0815 3000 SHRASN SCT005 BKN020CB
TEMPO 0815/0901 1500 SHSNRA BKN005 BKN012CB
BECMG 0901/0903 0600 FZFG VV002

Example: see airport list